Accueil
METAR-TAF:

METAR-TAF

Aéroports :

Ndjamena, Tchad

Aéroport international de N'Djaména

latitude: 12-08N, longitude: 015-02E, altitude: 295 m

Observation

Le bulletin a été fait il y a 23 minutes, à 20:00 UTC
Vent 6 kt de ouest/nord-ouest, variant entre ouest/nord-ouest et nord
Température 36°C
Humidité 15%
Pression 1006 hPa
Visibilité: 6000 m

METAR: FTTJ 222000Z 29006KT 290V360 6000 NSC 36/05 Q1006 NOSIG

Heure: 21:23 (20:23 UTC)

Prévision

Le bulletin a été fait il y a 3 heures et 23 minutes, à 17:00 UTC
Prévision valable du 22 à 18 UTC au 23 à 24 UTC
Vent 6 kt de direction variable
Visibilité: 8000 m

TAF: FTTJ 221700Z 2218/2324 VRB06KT 8000 NSC

Observations et prévisions météorologiques de plus de 4000 aéroports (messages METAR et TAF).

Les stations disponibles sont représentées par des disques jaunes et rouges sur la carte.

Passer la souris dessus pour voir le nom de la station.

Cliquer dessus pour voir les observations et prévisions météorologiques.

Pour changer de carte: cliquez sur les boutons verts avec une croix noire pour zoomer, sur le bouton vert avec un tiret pour effectuer un zoom arrière, ou sur les flèches vertes pour les cartes adjacentes.


METAR-TAF: